createdAt,value
2017-11-14T00:00:48.162Z,2.34
2017-11-14T00:01:48.157Z,2.44
2017-11-14T00:02:48.151Z,2.40
2017-11-14T00:03:48.145Z,2.44
2017-11-14T00:04:48.139Z,2.44
2017-11-14T00:05:48.136Z,2.44
2017-11-14T00:06:48.176Z,2.46
2017-11-14T00:07:48.121Z,2.37
2017-11-14T00:08:48.115Z,2.33
2017-11-14T00:09:48.112Z,2.34
2017-11-14T00:10:48.102Z,2.34
2017-11-14T00:11:48.097Z,2.37
2017-11-14T00:12:48.092Z,2.36
2017-11-14T00:13:48.086Z,2.40
2017-11-14T00:14:48.080Z,2.40
2017-11-14T00:15:48.073Z,2.36
2017-11-14T00:16:48.069Z,2.39
2017-11-14T00:17:48.062Z,2.46
2017-11-14T00:18:48.064Z,2.43
2017-11-14T00:19:48.052Z,2.47
2017-11-14T00:20:48.043Z,2.44
2017-11-14T00:21:48.037Z,2.46
2017-11-14T00:22:48.031Z,2.55
2017-11-14T00:23:48.026Z,2.44
2017-11-14T00:24:48.021Z,2.43
2017-11-14T00:25:48.013Z,2.39
2017-11-14T00:26:48.008Z,2.40
2017-11-14T00:27:48.002Z,2.36
2017-11-14T00:28:47.996Z,2.40
2017-11-14T00:29:47.990Z,2.36
2017-11-14T00:30:47.984Z,2.40
2017-11-14T00:31:47.978Z,2.41
2017-11-14T00:32:47.972Z,2.51
2017-11-14T00:33:47.967Z,2.47
2017-11-14T00:34:47.960Z,2.37
2017-11-14T00:35:47.956Z,2.36
2017-11-14T00:36:47.949Z,2.44
2017-11-14T00:37:47.943Z,2.41
2017-11-14T00:38:47.938Z,2.47
2017-11-14T00:39:47.931Z,2.51
2017-11-14T00:40:47.924Z,2.41
2017-11-14T00:41:47.919Z,2.44
2017-11-14T00:42:47.912Z,2.47
2017-11-14T00:43:47.906Z,2.47
2017-11-14T00:44:47.900Z,2.43
2017-11-14T00:45:47.895Z,2.44
2017-11-14T00:46:47.895Z,2.40
2017-11-14T00:47:47.881Z,2.36
2017-11-14T00:48:47.877Z,2.39
2017-11-14T00:49:47.870Z,2.47
2017-11-14T00:50:47.865Z,2.50
2017-11-14T00:51:47.859Z,2.58
2017-11-14T00:52:47.853Z,2.46
2017-11-14T00:53:47.848Z,2.36
2017-11-14T00:54:47.840Z,2.36
2017-11-14T00:55:47.834Z,2.34
2017-11-14T00:56:47.828Z,2.26
2017-11-14T00:57:47.824Z,2.30
2017-11-14T00:58:47.816Z,2.36
2017-11-14T00:59:47.811Z,2.41
2017-11-14T01:00:47.854Z,2.40
2017-11-14T01:01:47.799Z,2.44
2017-11-14T01:02:47.792Z,2.41
2017-11-14T01:03:47.790Z,2.34
2017-11-14T01:04:47.780Z,2.34
2017-11-14T01:05:47.774Z,2.40
2017-11-14T01:06:47.769Z,2.37
2017-11-14T01:07:47.763Z,2.39
2017-11-14T01:08:47.757Z,2.40
2017-11-14T01:09:47.751Z,2.33
2017-11-14T01:10:47.745Z,2.32
2017-11-14T01:11:47.740Z,2.32
2017-11-14T01:12:47.733Z,2.40
2017-11-14T01:13:47.728Z,2.32
2017-11-14T01:14:47.720Z,2.33
2017-11-14T01:15:47.714Z,2.23
2017-11-14T01:16:47.707Z,2.25
2017-11-14T01:17:47.702Z,2.19
2017-11-14T01:18:47.695Z,2.10
2017-11-14T01:19:47.689Z,2.22
2017-11-14T01:20:47.683Z,2.23
2017-11-14T01:21:47.678Z,2.23
2017-11-14T01:22:47.671Z,2.32
2017-11-14T01:23:47.666Z,2.23
2017-11-14T01:24:47.660Z,2.39
2017-11-14T01:25:47.654Z,2.34
2017-11-14T01:26:47.664Z,2.30
2017-11-14T01:27:47.641Z,2.34
2017-11-14T01:28:47.635Z,2.37
2017-11-14T01:29:47.631Z,2.32
2017-11-14T01:30:47.624Z,2.33
2017-11-14T01:31:47.623Z,2.28
2017-11-14T01:32:47.610Z,2.33
2017-11-14T01:33:47.612Z,2.36
2017-11-14T01:34:47.598Z,2.28
2017-11-14T01:35:47.593Z,2.23
2017-11-14T01:36:47.586Z,2.30
2017-11-14T01:37:47.581Z,2.22
2017-11-14T01:38:47.575Z,2.32
2017-11-14T01:39:47.568Z,2.33
2017-11-14T01:40:47.576Z,2.28
2017-11-14T01:41:47.556Z,2.39
2017-11-14T01:42:47.550Z,2.25
2017-11-14T01:43:47.544Z,2.33
2017-11-14T01:44:47.538Z,2.22
2017-11-14T01:45:47.535Z,2.25
2017-11-14T01:46:47.525Z,2.32
2017-11-14T01:47:47.521Z,2.28
2017-11-14T01:48:47.514Z,2.34
2017-11-14T01:49:47.509Z,2.23
2017-11-14T01:50:47.501Z,2.19
2017-11-14T01:51:47.499Z,2.32
2017-11-14T01:52:47.490Z,2.26
2017-11-14T01:53:47.485Z,2.34
2017-11-14T01:54:47.478Z,2.21
2017-11-14T01:55:47.472Z,2.22
2017-11-14T01:56:47.465Z,2.23
2017-11-14T01:57:47.465Z,2.23
2017-11-14T01:58:47.454Z,2.26
2017-11-14T01:59:47.449Z,2.22
2017-11-14T02:00:47.442Z,2.22
2017-11-14T02:01:47.436Z,2.21
2017-11-14T02:02:47.428Z,2.26
2017-11-14T02:03:47.423Z,2.33
2017-11-14T02:04:47.417Z,2.25
2017-11-14T02:05:47.412Z,2.28
2017-11-14T02:06:47.406Z,2.37
2017-11-14T02:07:47.399Z,2.33
2017-11-14T02:08:47.393Z,2.22
2017-11-14T02:09:47.386Z,2.30
2017-11-14T02:10:47.380Z,2.25
2017-11-14T02:11:47.373Z,2.25
2017-11-14T02:12:47.369Z,2.26
2017-11-14T02:13:47.387Z,2.25
2017-11-14T02:14:47.356Z,2.28
2017-11-14T02:15:47.351Z,2.32
2017-11-14T02:16:47.346Z,2.40
2017-11-14T02:17:47.340Z,2.25
2017-11-14T02:18:47.333Z,2.34
2017-11-14T02:19:47.327Z,2.23
2017-11-14T02:20:47.322Z,2.32
2017-11-14T02:21:47.316Z,2.28
2017-11-14T02:22:47.308Z,2.25
2017-11-14T02:23:47.306Z,2.32
2017-11-14T02:24:47.302Z,2.36
2017-11-14T02:25:47.291Z,2.37
2017-11-14T02:26:47.285Z,2.28
2017-11-14T02:27:47.278Z,2.40
2017-11-14T02:28:47.273Z,2.33
2017-11-14T02:29:47.267Z,2.34
2017-11-14T02:30:47.260Z,2.28
2017-11-14T02:31:47.254Z,2.32
2017-11-14T02:32:47.247Z,2.40
2017-11-14T02:33:47.243Z,2.34
2017-11-14T02:34:47.237Z,2.30
2017-11-14T02:35:47.231Z,2.39
2017-11-14T02:36:47.225Z,2.36
2017-11-14T02:37:47.217Z,2.33
2017-11-14T02:38:47.211Z,2.32
2017-11-14T02:39:47.215Z,2.34
2017-11-14T02:40:47.200Z,2.32
2017-11-14T02:41:47.196Z,2.30
2017-11-14T02:42:47.188Z,2.23
2017-11-14T02:43:47.192Z,2.22
2017-11-14T02:44:47.177Z,2.25
2017-11-14T02:45:47.173Z,2.19
2017-11-14T02:46:47.162Z,2.22
2017-11-14T02:47:47.158Z,2.21
2017-11-14T02:48:47.152Z,2.21
2017-11-14T02:49:47.148Z,2.16
2017-11-14T02:50:47.138Z,2.15
2017-11-14T02:51:47.140Z,2.26
2017-11-14T02:52:47.127Z,2.19
2017-11-14T02:53:47.123Z,2.18
2017-11-14T02:54:47.115Z,2.14
2017-11-14T02:55:47.115Z,2.15
2017-11-14T02:56:47.103Z,2.21
2017-11-14T02:57:47.100Z,2.15
2017-11-14T02:58:47.090Z,2.16
2017-11-14T02:59:47.084Z,2.16
2017-11-14T03:00:47.079Z,2.15
2017-11-14T03:01:47.073Z,2.16
2017-11-14T03:02:47.066Z,2.08
2017-11-14T03:03:47.061Z,2.22
2017-11-14T03:04:47.053Z,2.21
2017-11-14T03:05:47.050Z,2.12
2017-11-14T03:06:47.041Z,2.22
2017-11-14T03:07:47.035Z,2.15
2017-11-14T03:08:47.033Z,2.14
2017-11-14T03:09:47.025Z,2.21
2017-11-14T03:10:47.016Z,2.28
2017-11-14T03:11:47.012Z,2.19
2017-11-14T03:12:47.010Z,2.21
2017-11-14T03:13:46.999Z,2.33
2017-11-14T03:14:46.993Z,2.25
2017-11-14T03:15:46.987Z,2.23
2017-11-14T03:16:46.980Z,2.21
2017-11-14T03:17:46.975Z,2.26
2017-11-14T03:18:46.969Z,2.26
2017-11-14T03:19:46.962Z,2.22
2017-11-14T03:20:46.955Z,2.22
2017-11-14T03:21:46.951Z,2.25
2017-11-14T03:22:46.944Z,2.25
2017-11-14T03:23:46.937Z,2.23
2017-11-14T03:24:46.932Z,2.33
2017-11-14T03:25:46.930Z,2.21
2017-11-14T03:26:46.918Z,2.19
2017-11-14T03:27:46.913Z,2.15
2017-11-14T03:28:46.906Z,2.15
2017-11-14T03:29:46.901Z,2.10
2017-11-14T03:30:46.898Z,2.15
2017-11-14T03:31:46.889Z,2.16
2017-11-14T03:32:46.886Z,2.14
2017-11-14T03:33:46.877Z,2.14
2017-11-14T03:34:46.871Z,2.12
2017-11-14T03:35:46.864Z,2.16
2017-11-14T03:36:46.858Z,2.14
2017-11-14T03:37:46.852Z,2.16
2017-11-14T03:38:46.845Z,2.15
2017-11-14T03:39:46.840Z,2.10
2017-11-14T03:40:46.835Z,2.14
2017-11-14T03:41:46.827Z,2.15
2017-11-14T03:42:46.820Z,2.05
2017-11-14T03:43:46.814Z,2.04
2017-11-14T03:44:46.809Z,2.00
2017-11-14T03:45:46.804Z,2.03
2017-11-14T03:46:46.795Z,2.00
2017-11-14T03:47:46.789Z,2.14
2017-11-14T03:48:46.788Z,2.03
2017-11-14T03:49:46.778Z,2.05
2017-11-14T03:50:46.772Z,2.01
2017-11-14T03:51:46.766Z,1.93
2017-11-14T03:52:46.760Z,1.98
2017-11-14T03:53:46.753Z,2.03
2017-11-14T03:54:46.746Z,1.92
2017-11-14T03:55:46.742Z,1.85
2017-11-14T03:56:46.735Z,1.93
2017-11-14T03:57:46.729Z,1.84
2017-11-14T03:58:46.722Z,1.98
2017-11-14T03:59:46.714Z,2.01
2017-11-14T04:00:46.710Z,2.00
2017-11-14T04:01:46.704Z,2.07
2017-11-14T04:02:46.696Z,2.01
2017-11-14T04:03:46.698Z,2.00
2017-11-14T04:04:46.684Z,1.89
2017-11-14T04:05:46.680Z,1.95
2017-11-14T04:06:46.671Z,1.97
2017-11-14T04:07:46.667Z,1.93
2017-11-14T04:08:46.660Z,1.84
2017-11-14T04:09:46.653Z,1.93
2017-11-14T04:10:46.657Z,1.89
2017-11-14T04:11:46.641Z,1.88
2017-11-14T04:12:46.634Z,1.89
2017-11-14T04:13:46.628Z,1.85
2017-11-14T04:14:46.622Z,1.86
2017-11-14T04:15:46.666Z,1.97
2017-11-14T04:16:46.610Z,1.84
2017-11-14T04:17:46.604Z,1.93
2017-11-14T04:18:46.597Z,1.95
2017-11-14T04:19:46.591Z,1.89
2017-11-14T04:20:46.584Z,1.86
2017-11-14T04:21:46.579Z,1.82
2017-11-14T04:22:46.571Z,1.81
2017-11-14T04:23:46.566Z,1.85
2017-11-14T04:24:46.559Z,1.84
2017-11-14T04:25:46.557Z,1.81
2017-11-14T04:26:46.546Z,1.88
2017-11-14T04:27:46.545Z,1.86
2017-11-14T04:28:46.534Z,1.95
2017-11-14T04:29:46.528Z,1.98
2017-11-14T04:30:46.521Z,1.97
2017-11-14T04:31:46.516Z,1.98
2017-11-14T04:32:46.509Z,1.95
2017-11-14T04:33:46.502Z,1.95
2017-11-14T04:34:46.495Z,1.89
2017-11-14T04:35:46.490Z,1.95
2017-11-14T04:36:46.483Z,1.92
2017-11-14T04:37:46.477Z,1.89
2017-11-14T04:38:46.469Z,1.86
2017-11-14T04:39:46.464Z,1.85
2017-11-14T04:40:46.507Z,1.81
2017-11-14T04:41:46.452Z,1.78
2017-11-14T04:42:46.445Z,1.75
2017-11-14T04:43:46.438Z,1.86
2017-11-14T04:44:46.433Z,1.75
2017-11-14T04:45:46.426Z,1.81
2017-11-14T04:46:46.420Z,1.70
2017-11-14T04:47:46.412Z,1.79
2017-11-14T04:48:46.406Z,1.61
2017-11-14T04:49:46.400Z,1.71
2017-11-14T04:50:46.445Z,1.70
2017-11-14T04:51:46.387Z,1.66
2017-11-14T04:52:46.386Z,1.63
2017-11-14T04:53:46.374Z,1.52
2017-11-14T04:54:46.367Z,1.53
2017-11-14T04:55:46.361Z,1.53
2017-11-14T04:56:46.355Z,1.42
2017-11-14T04:57:46.349Z,1.43
2017-11-14T04:58:46.341Z,1.45
2017-11-14T04:59:46.334Z,1.38
2017-11-14T05:00:46.328Z,1.46
2017-11-14T05:01:46.322Z,1.39
2017-11-14T05:02:46.315Z,1.42
2017-11-14T05:03:46.310Z,1.36
2017-11-14T05:04:46.303Z,1.22
2017-11-14T05:05:46.309Z,1.20
2017-11-14T05:06:46.290Z,1.12
2017-11-14T05:07:46.282Z,1.16
2017-11-14T05:08:46.280Z,1.18
2017-11-14T05:09:46.271Z,1.10
2017-11-14T05:10:46.264Z,1.12
2017-11-14T05:11:46.257Z,0.99
2017-11-14T05:12:46.250Z,0.95
2017-11-14T05:13:46.244Z,0.94
2017-11-14T05:14:46.238Z,0.85
2017-11-14T05:15:46.231Z,0.78
2017-11-14T05:16:46.226Z,0.84
2017-11-14T05:17:46.219Z,0.70
2017-11-14T05:18:46.209Z,0.68
2017-11-14T05:19:46.203Z,0.64
2017-11-14T05:20:46.197Z,0.78
2017-11-14T05:21:46.190Z,0.78
2017-11-14T05:22:46.182Z,0.82
2017-11-14T05:23:46.176Z,0.82
2017-11-14T05:24:46.169Z,0.85
2017-11-14T05:25:46.163Z,0.89
2017-11-14T05:26:46.154Z,0.91
2017-11-14T05:27:46.149Z,0.95
2017-11-14T05:28:46.142Z,0.96
2017-11-14T05:29:46.136Z,0.92
2017-11-14T05:30:46.128Z,0.85
2017-11-14T05:31:46.122Z,0.94
2017-11-14T05:32:46.115Z,0.95
2017-11-14T05:33:46.108Z,0.88
2017-11-14T05:34:46.101Z,1.02
2017-11-14T05:35:46.094Z,0.99
2017-11-14T05:36:46.088Z,0.88
2017-11-14T05:37:46.081Z,0.91
2017-11-14T05:38:46.073Z,0.95
2017-11-14T05:39:46.072Z,0.96
2017-11-14T05:40:46.061Z,1.10
2017-11-14T05:41:46.054Z,1.06
2017-11-14T05:42:46.046Z,1.12
2017-11-14T05:43:46.040Z,1.16
2017-11-14T05:44:46.033Z,1.07
2017-11-14T05:45:46.027Z,1.18
2017-11-14T05:46:46.019Z,1.14
2017-11-14T05:47:46.014Z,1.22
2017-11-14T05:48:46.005Z,1.30
2017-11-14T05:49:45.998Z,1.34
2017-11-14T05:50:45.991Z,1.30
2017-11-14T05:51:46.336Z,1.36
2017-11-14T05:52:45.978Z,1.36
2017-11-14T05:53:45.976Z,1.34
2017-11-14T05:54:45.967Z,1.30
2017-11-14T05:55:45.960Z,1.30
2017-11-14T05:56:45.952Z,1.27
2017-11-14T05:57:45.946Z,1.30
2017-11-14T05:58:45.938Z,1.30
2017-11-14T05:59:45.932Z,1.30
2017-11-14T06:00:45.925Z,1.27
2017-11-14T06:01:45.917Z,1.22
2017-11-14T06:02:45.912Z,1.27
2017-11-14T06:03:45.904Z,1.28
2017-11-14T06:04:45.899Z,1.25
2017-11-14T06:05:45.944Z,1.28
2017-11-14T06:06:45.885Z,1.16
2017-11-14T06:07:45.879Z,1.18
2017-11-14T06:08:45.873Z,1.06
2017-11-14T06:09:45.865Z,1.12
2017-11-14T06:10:45.859Z,1.10
2017-11-14T06:11:45.853Z,0.91
2017-11-14T06:12:45.898Z,0.96
2017-11-14T06:13:45.839Z,0.95
2017-11-14T06:14:45.833Z,0.96
2017-11-14T06:15:45.825Z,1.06
2017-11-14T06:16:45.818Z,0.86
2017-11-14T06:17:45.816Z,0.92
2017-11-14T06:18:45.806Z,0.91
2017-11-14T06:19:45.797Z,0.96
2017-11-14T06:20:45.793Z,0.95
2017-11-14T06:21:45.785Z,1.03
2017-11-14T06:22:45.777Z,1.00
2017-11-14T06:23:45.772Z,0.95
2017-11-14T06:24:45.766Z,1.09
2017-11-14T06:25:45.758Z,1.09
2017-11-14T06:26:45.751Z,1.12
2017-11-14T06:27:45.745Z,1.10
2017-11-14T06:28:45.737Z,0.99
2017-11-14T06:29:45.731Z,0.99
2017-11-14T06:30:45.724Z,0.91
2017-11-14T06:31:45.718Z,0.88
2017-11-14T06:32:45.711Z,0.82
2017-11-14T06:33:45.704Z,0.84
2017-11-14T06:34:45.706Z,0.77
2017-11-14T06:35:45.689Z,0.74
2017-11-14T06:36:45.686Z,0.66
2017-11-14T06:37:45.676Z,0.59
2017-11-14T06:38:45.670Z,0.58
2017-11-14T06:39:45.663Z,0.51
2017-11-14T06:40:45.656Z,0.47
2017-11-14T06:41:45.672Z,0.52
2017-11-14T06:42:45.642Z,0.63
2017-11-14T06:43:45.634Z,0.58
2017-11-14T06:44:45.629Z,0.61
2017-11-14T06:45:45.621Z,0.64
2017-11-14T06:46:45.613Z,0.63
2017-11-14T06:47:45.607Z,0.71
2017-11-14T06:48:45.600Z,0.66
2017-11-14T06:49:45.592Z,0.70
2017-11-14T06:50:45.589Z,0.68
2017-11-14T06:51:45.578Z,0.76
2017-11-14T06:52:45.571Z,0.81
2017-11-14T06:53:45.566Z,0.82
2017-11-14T06:54:45.557Z,0.85
2017-11-14T06:55:45.550Z,0.91
2017-11-14T06:56:45.549Z,0.95
2017-11-14T06:57:45.537Z,1.02
2017-11-14T06:58:45.530Z,1.02
2017-11-14T06:59:45.529Z,0.96
2017-11-14T07:00:45.520Z,1.18
2017-11-14T07:01:45.512Z,1.13
2017-11-14T07:02:45.504Z,1.30
2017-11-14T07:03:45.497Z,1.25
2017-11-14T07:04:45.502Z,1.28
2017-11-14T07:05:45.484Z,1.30
2017-11-14T07:06:45.477Z,1.46
2017-11-14T07:07:45.470Z,1.52
2017-11-14T07:08:45.464Z,1.56
2017-11-14T07:09:45.458Z,1.52
2017-11-14T07:10:45.450Z,1.56
2017-11-14T07:11:45.443Z,1.53
2017-11-14T07:12:45.438Z,1.56
2017-11-14T07:13:45.432Z,1.46
2017-11-14T07:14:45.429Z,1.38
2017-11-14T07:15:45.420Z,1.56
2017-11-14T07:16:45.412Z,1.57
2017-11-14T07:17:45.408Z,1.60
2017-11-14T07:18:45.413Z,1.60
2017-11-14T07:19:45.395Z,1.63
2017-11-14T07:20:45.387Z,1.56
2017-11-14T07:21:45.381Z,1.53
2017-11-14T07:22:45.373Z,1.64
2017-11-14T07:23:45.369Z,1.68
2017-11-14T07:24:45.361Z,1.74
2017-11-14T07:25:45.357Z,1.71
2017-11-14T07:26:45.349Z,1.67
2017-11-14T07:27:45.343Z,1.78
2017-11-14T07:28:45.340Z,1.67
2017-11-14T07:29:45.333Z,1.76
2017-11-14T07:30:45.325Z,1.81
2017-11-14T07:31:45.319Z,1.97
2017-11-14T07:32:45.313Z,1.98
2017-11-14T07:33:45.308Z,1.93
2017-11-14T07:34:45.301Z,2.15
2017-11-14T07:35:45.295Z,2.26
2017-11-14T07:36:45.340Z,2.22
2017-11-14T07:37:45.283Z,2.26
2017-11-14T07:38:45.278Z,2.32
2017-11-14T07:39:45.273Z,2.30
2017-11-14T07:40:45.269Z,2.43
2017-11-14T07:41:45.262Z,2.44
2017-11-14T07:42:45.257Z,2.52
2017-11-14T07:43:45.273Z,2.61
2017-11-14T07:44:45.246Z,2.72
2017-11-14T07:45:45.243Z,2.87
2017-11-14T07:46:45.235Z,3.21
2017-11-14T07:47:45.230Z,3.43
2017-11-14T07:48:45.227Z,3.63
2017-11-14T07:49:45.222Z,4.38
2017-11-14T07:50:45.218Z,4.70
2017-11-14T07:51:45.213Z,4.79
2017-11-14T07:52:45.210Z,5.04
2017-11-14T07:53:45.209Z,5.29
2017-11-14T07:54:45.203Z,5.36
2017-11-14T07:55:45.202Z,5.59
2017-11-14T07:56:45.201Z,5.59
2017-11-14T07:57:45.197Z,5.52
2017-11-14T07:58:45.195Z,5.52
2017-11-14T07:59:45.193Z,5.55
2017-11-14T08:00:45.191Z,5.55
2017-11-14T08:01:45.191Z,5.43
2017-11-14T08:02:45.186Z,5.04
2017-11-14T08:03:45.186Z,4.70
2017-11-14T08:04:45.234Z,4.30
2017-11-14T08:05:45.182Z,4.18
2017-11-14T08:06:45.180Z,3.89
2017-11-14T08:07:45.176Z,3.78
2017-11-14T08:08:45.173Z,3.91
2017-11-14T08:09:45.172Z,4.09
2017-11-14T08:10:45.168Z,4.46
2017-11-14T08:11:45.165Z,4.64
2017-11-14T08:12:45.162Z,5.00
2017-11-14T08:13:45.160Z,5.23
2017-11-14T08:14:45.158Z,5.44
2017-11-14T08:15:45.156Z,5.79
2017-11-14T08:16:45.154Z,5.99
2017-11-14T08:17:45.152Z,6.20
2017-11-14T08:18:45.149Z,6.41
2017-11-14T08:19:45.153Z,6.72
2017-11-14T08:20:45.159Z,7.23
2017-11-14T08:21:45.164Z,7.41
2017-11-14T08:22:45.144Z,7.28
2017-11-14T08:23:45.193Z,6.95
2017-11-14T08:24:45.144Z,6.74
2017-11-14T08:25:45.143Z,6.50
2017-11-14T08:26:45.141Z,6.20
2017-11-14T08:27:45.141Z,6.01
2017-11-14T08:28:45.141Z,5.77
2017-11-14T08:29:45.139Z,5.62
2017-11-14T08:30:45.137Z,5.37
2017-11-14T08:31:45.136Z,5.18
2017-11-14T08:32:45.135Z,5.07
2017-11-14T08:33:45.138Z,4.86
2017-11-14T08:34:45.132Z,4.79
2017-11-14T08:35:45.130Z,4.67
2017-11-14T08:36:45.129Z,4.60
2017-11-14T08:37:45.126Z,4.34
2017-11-14T08:38:45.124Z,4.10
2017-11-14T08:39:45.177Z,3.95
2017-11-14T08:40:45.122Z,4.02
2017-11-14T08:41:45.117Z,4.45
2017-11-14T08:42:45.114Z,4.53
2017-11-14T08:43:45.112Z,4.66
2017-11-14T08:44:45.111Z,4.64
2017-11-14T08:45:45.108Z,4.49
2017-11-14T08:46:45.105Z,4.30
2017-11-14T08:47:45.101Z,4.34
2017-11-14T08:48:45.100Z,4.34
2017-11-14T08:49:45.097Z,4.36
2017-11-14T08:50:45.093Z,4.52
2017-11-14T08:51:45.090Z,4.67
2017-11-14T08:52:45.088Z,4.83
2017-11-14T08:53:45.086Z,4.95
2017-11-14T08:54:45.108Z,5.05
2017-11-14T08:55:45.080Z,4.94
2017-11-14T08:56:45.078Z,4.86
2017-11-14T08:57:45.076Z,4.78
2017-11-14T08:58:45.072Z,4.74
2017-11-14T08:59:45.069Z,4.58
2017-11-14T09:00:45.069Z,4.56
2017-11-14T09:01:45.064Z,4.34
2017-11-14T09:02:45.060Z,4.16
2017-11-14T09:03:45.059Z,4.13
2017-11-14T09:04:45.057Z,4.04
2017-11-14T09:05:45.052Z,3.96
2017-11-14T09:06:45.049Z,3.96
2017-11-14T09:07:45.047Z,4.04
2017-11-14T09:08:45.048Z,4.18
2017-11-14T09:09:45.051Z,4.31
2017-11-14T09:10:45.037Z,4.48
2017-11-14T09:11:45.033Z,4.60
2017-11-14T09:12:45.032Z,4.76
2017-11-14T09:13:45.028Z,5.01
2017-11-14T09:14:45.024Z,5.22
2017-11-14T09:15:45.022Z,5.20
2017-11-14T09:16:45.020Z,5.08
2017-11-14T09:17:45.017Z,5.05
2017-11-14T09:18:45.018Z,5.07
2017-11-14T09:19:45.013Z,5.16
2017-11-14T09:20:45.009Z,5.51
2017-11-14T09:21:45.007Z,5.64
2017-11-14T09:22:45.004Z,5.59
2017-11-14T09:23:45.003Z,5.70
2017-11-14T09:24:45.004Z,5.79
2017-11-14T09:25:44.999Z,5.90
2017-11-14T09:26:44.999Z,5.90
2017-11-14T09:27:44.997Z,5.56
2017-11-14T09:28:44.992Z,5.34
2017-11-14T09:29:44.991Z,5.13
2017-11-14T09:30:44.988Z,5.00
2017-11-14T09:31:44.989Z,4.86
2017-11-14T09:32:44.985Z,4.89
2017-11-14T09:33:44.987Z,4.86
2017-11-14T09:34:44.981Z,4.84
2017-11-14T09:35:44.980Z,4.94
2017-11-14T09:36:44.977Z,5.01
2017-11-14T09:37:44.976Z,5.07
2017-11-14T09:38:44.972Z,5.18
2017-11-14T09:39:44.971Z,5.36
2017-11-14T09:40:44.969Z,5.73
2017-11-14T09:41:44.967Z,6.20
2017-11-14T09:42:44.966Z,6.52
2017-11-14T09:43:44.969Z,6.80
2017-11-14T09:44:44.962Z,7.07
2017-11-14T09:45:44.963Z,7.13
2017-11-14T09:46:44.960Z,6.78
2017-11-14T09:47:44.959Z,6.59
2017-11-14T09:48:44.959Z,6.36
2017-11-14T09:49:45.008Z,6.22
2017-11-14T09:50:44.957Z,6.22
2017-11-14T09:51:44.956Z,6.02
2017-11-14T09:52:44.958Z,5.98
2017-11-14T09:53:44.957Z,6.20
2017-11-14T09:54:44.955Z,6.62
2017-11-14T09:55:44.956Z,6.90
2017-11-14T09:56:44.955Z,6.95
2017-11-14T09:57:44.956Z,7.04
2017-11-14T09:58:44.956Z,6.82
2017-11-14T09:59:44.956Z,6.43
2017-11-14T10:00:44.957Z,6.06
2017-11-14T10:01:44.956Z,6.02
2017-11-14T10:02:44.957Z,6.10
2017-11-14T10:03:44.955Z,6.05
2017-11-14T10:04:45.106Z,6.19
2017-11-14T10:05:44.955Z,6.13
2017-11-14T10:06:44.954Z,5.94
2017-11-14T10:07:44.955Z,5.95
2017-11-14T10:08:44.953Z,5.84
2017-11-14T10:09:44.956Z,5.91
2017-11-14T10:10:44.951Z,5.92
2017-11-14T10:11:44.951Z,5.92
2017-11-14T10:12:44.951Z,5.83
2017-11-14T10:13:44.950Z,5.72
2017-11-14T10:14:44.948Z,5.58
2017-11-14T10:15:44.946Z,5.46
2017-11-14T10:16:44.945Z,5.38
2017-11-14T10:17:44.943Z,5.40
2017-11-14T10:18:44.942Z,5.34
2017-11-14T10:19:44.943Z,5.28
2017-11-14T10:20:44.938Z,5.25
2017-11-14T10:21:44.936Z,5.25
2017-11-14T10:22:44.934Z,5.31
2017-11-14T10:23:44.943Z,5.25
2017-11-14T10:24:44.932Z,5.25
2017-11-14T10:25:44.928Z,5.18
2017-11-14T10:26:44.926Z,5.23
2017-11-14T10:27:44.923Z,5.37
2017-11-14T10:28:44.923Z,5.46
2017-11-14T10:29:44.920Z,6.05
2017-11-14T10:30:44.921Z,6.46
2017-11-14T10:31:44.914Z,6.68
2017-11-14T10:32:44.913Z,6.59
2017-11-14T10:33:44.916Z,6.52
2017-11-14T10:34:44.910Z,6.31
2017-11-14T10:35:44.908Z,6.07
2017-11-14T10:36:44.908Z,6.02
2017-11-14T10:37:44.906Z,5.92
2017-11-14T10:38:44.904Z,5.83
2017-11-14T10:39:44.904Z,5.94
2017-11-14T10:40:44.901Z,5.91
2017-11-14T10:41:44.900Z,5.88
2017-11-14T10:42:44.896Z,5.74
2017-11-14T10:43:44.896Z,5.43
2017-11-14T10:44:44.896Z,5.38
2017-11-14T10:45:44.892Z,5.29
2017-11-14T10:46:44.890Z,5.38
2017-11-14T10:47:44.886Z,5.34
2017-11-14T10:48:44.886Z,5.37
2017-11-14T10:49:44.883Z,5.43
2017-11-14T10:50:44.887Z,5.41
2017-11-14T10:51:44.881Z,5.44
2017-11-14T10:52:44.875Z,5.44
2017-11-14T10:53:44.872Z,5.34
2017-11-14T10:54:44.896Z,5.19
2017-11-14T10:55:44.867Z,5.13
2017-11-14T10:56:44.874Z,5.20
2017-11-14T10:57:44.863Z,5.20
2017-11-14T10:58:44.858Z,5.25
2017-11-14T10:59:44.857Z,5.41
2017-11-14T11:00:44.853Z,5.72
2017-11-14T11:01:44.851Z,5.73
2017-11-14T11:02:44.848Z,5.72
2017-11-14T11:03:44.847Z,5.83
2017-11-14T11:04:44.843Z,5.98
2017-11-14T11:05:44.840Z,6.02
2017-11-14T11:06:44.838Z,6.15
2017-11-14T11:07:44.835Z,5.98
2017-11-14T11:08:44.833Z,6.13
2017-11-14T11:09:44.831Z,6.05
2017-11-14T11:10:44.832Z,6.02
2017-11-14T11:11:44.825Z,5.97
2017-11-14T11:12:44.822Z,6.12
2017-11-14T11:13:44.819Z,6.05
2017-11-14T11:14:44.819Z,5.87
2017-11-14T11:15:44.815Z,5.91
2017-11-14T11:16:44.813Z,5.95
2017-11-14T11:17:44.810Z,5.92
2017-11-14T11:18:44.808Z,5.94
2017-11-14T11:19:44.805Z,5.81
2017-11-14T11:20:44.810Z,5.69
2017-11-14T11:21:44.801Z,5.61
2017-11-14T11:22:44.798Z,5.56
2017-11-14T11:23:44.796Z,5.54
2017-11-14T11:24:44.795Z,5.62
2017-11-14T11:25:44.796Z,5.64
2017-11-14T11:26:44.788Z,5.59
2017-11-14T11:27:44.785Z,5.56
2017-11-14T11:28:44.783Z,5.40
2017-11-14T11:29:44.831Z,5.29
2017-11-14T11:30:44.778Z,5.20
2017-11-14T11:31:44.775Z,5.18
2017-11-14T11:32:44.771Z,5.25
2017-11-14T11:33:44.769Z,5.13
2017-11-14T11:34:44.767Z,4.98
2017-11-14T11:35:44.813Z,4.98
2017-11-14T11:36:44.760Z,4.84
2017-11-14T11:37:44.757Z,4.84
2017-11-14T11:38:44.751Z,4.79
2017-11-14T11:39:44.749Z,4.87
2017-11-14T11:40:44.747Z,4.78
2017-11-14T11:41:44.744Z,4.79
2017-11-14T11:42:44.741Z,4.87
2017-11-14T11:43:44.736Z,4.90
2017-11-14T11:44:44.733Z,4.92
2017-11-14T11:45:44.737Z,5.05
2017-11-14T11:46:44.727Z,5.13
2017-11-14T11:47:44.722Z,5.16
2017-11-14T11:48:44.719Z,5.19
2017-11-14T11:49:44.716Z,5.29
2017-11-14T11:50:44.712Z,5.29
2017-11-14T11:51:44.709Z,5.31
2017-11-14T11:52:44.708Z,5.25
2017-11-14T11:53:44.704Z,5.12
2017-11-14T11:54:44.699Z,5.04
2017-11-14T11:55:44.697Z,5.46
2017-11-14T11:56:44.692Z,5.90
2017-11-14T11:57:44.690Z,6.36
2017-11-14T11:58:44.688Z,6.57
2017-11-14T11:59:44.691Z,6.87
2017-11-14T12:00:44.681Z,7.19
2017-11-14T12:01:44.680Z,7.31
2017-11-14T12:02:44.677Z,7.04
2017-11-14T12:03:44.676Z,6.71
2017-11-14T12:04:44.688Z,6.74
2017-11-14T12:05:44.672Z,6.64
2017-11-14T12:06:44.673Z,6.65
2017-11-14T12:07:44.670Z,6.85
2017-11-14T12:08:44.670Z,7.01
2017-11-14T12:09:44.668Z,7.15
2017-11-14T12:10:44.666Z,7.22
2017-11-14T12:11:44.665Z,7.37
2017-11-14T12:12:44.666Z,7.22
2017-11-14T12:13:44.664Z,7.22
2017-11-14T12:14:44.662Z,7.14
2017-11-14T12:15:44.663Z,7.22
2017-11-14T12:16:44.662Z,7.29
2017-11-14T12:17:44.661Z,7.14
2017-11-14T12:18:44.660Z,6.85
2017-11-14T12:19:44.662Z,6.60
2017-11-14T12:20:44.660Z,6.83
2017-11-14T12:21:44.661Z,7.01
2017-11-14T12:22:44.658Z,7.18
2017-11-14T12:23:44.658Z,7.21
2017-11-14T12:24:44.715Z,7.08
2017-11-14T12:25:44.658Z,7.04
2017-11-14T12:26:44.659Z,7.07
2017-11-14T12:27:44.655Z,7.13
2017-11-14T12:28:44.656Z,7.41
2017-11-14T12:29:44.654Z,7.69
2017-11-14T12:30:44.654Z,7.77
2017-11-14T12:31:44.654Z,7.78
2017-11-14T12:32:44.654Z,7.77
2017-11-14T12:33:44.653Z,7.75
2017-11-14T12:34:44.652Z,7.78
2017-11-14T12:35:44.703Z,7.67
2017-11-14T12:36:44.651Z,7.59
2017-11-14T12:37:44.651Z,7.48
2017-11-14T12:38:44.649Z,7.33
2017-11-14T12:39:44.649Z,7.22
2017-11-14T12:40:44.652Z,7.23
2017-11-14T12:41:44.650Z,7.03
2017-11-14T12:42:44.647Z,6.93
2017-11-14T12:43:44.646Z,6.71
2017-11-14T12:44:44.644Z,6.64
2017-11-14T12:45:44.644Z,6.50
2017-11-14T12:46:44.642Z,6.43
2017-11-14T12:47:44.645Z,6.36
2017-11-14T12:48:44.639Z,6.39
2017-11-14T12:49:44.637Z,6.36
2017-11-14T12:50:44.636Z,6.50
2017-11-14T12:51:44.653Z,6.41
2017-11-14T12:52:44.632Z,6.64
2017-11-14T12:53:44.631Z,6.72
2017-11-14T12:54:44.633Z,6.64
2017-11-14T12:55:44.627Z,6.54
2017-11-14T12:56:44.626Z,6.59
2017-11-14T12:57:44.623Z,6.62
2017-11-14T12:58:44.621Z,6.57
2017-11-14T12:59:44.618Z,6.68
2017-11-14T13:00:44.617Z,6.77
2017-11-14T13:01:44.615Z,6.83
2017-11-14T13:02:44.614Z,7.01
2017-11-14T13:03:44.612Z,7.00
2017-11-14T13:04:44.608Z,7.00
2017-11-14T13:05:44.607Z,6.89
2017-11-14T13:06:44.604Z,6.86
2017-11-14T13:07:44.606Z,6.75
2017-11-14T13:08:44.601Z,6.54
2017-11-14T13:09:44.597Z,6.31
2017-11-14T13:10:44.595Z,6.13
2017-11-14T13:11:44.596Z,6.09
2017-11-14T13:12:44.592Z,6.02
2017-11-14T13:13:44.590Z,5.87
2017-11-14T13:14:44.591Z,5.80
2017-11-14T13:15:44.585Z,5.74
2017-11-14T13:16:44.584Z,5.70
2017-11-14T13:17:44.580Z,5.70
2017-11-14T13:18:44.576Z,5.61